Time;durP1;ratioP1;P1;durP2;ratioP2;P2;SDS_P1;SDS_P2;PMS_P1;PMS_P2;Temp;Humidity;BMP_temperature;BMP_pressure;BME280_temperature;BME280_humidity;BME280_pressure;Samples;Min_cycle;Max_cycle;Signal;HPM_P1;HPM_P2
2024/01/27 00:01:16;;;;;;;1.93;1.30;;;;;;;4.01;100.00;97860.63;4975829;28;20245;-69
2024/01/27 00:03:43;;;;;;;2.30;1.40;;;;;;;3.87;100.00;97865.91;4977440;28;20686;-69
2024/01/27 00:06:10;;;;;;;3.97;1.60;;;;;;;4.13;100.00;97862.44;4974827;28;20591;-68
2024/01/27 00:08:37;;;;;;;3.27;1.60;;;;;;;3.89;100.00;97878.84;4975927;28;20230;-69
2024/01/27 00:11:03;;;;;;;2.33;1.47;;;;;;;3.94;100.00;97871.56;4976993;28;20236;-68
2024/01/27 00:13:30;;;;;;;3.20;1.77;;;;;;;3.68;100.00;97874.97;4978108;28;20211;-68
2024/01/27 00:15:57;;;;;;;1.80;1.33;;;;;;;3.69;100.00;97877.47;4980284;28;20215;-69
2024/01/27 00:18:23;;;;;;;1.80;1.30;;;;;;;3.72;100.00;97876.47;4976235;28;20226;-69
2024/01/27 00:20:50;;;;;;;4.03;1.63;;;;;;;3.65;100.00;97876.00;4977408;28;20503;-69
2024/01/27 00:23:18;;;;;;;2.10;1.43;;;;;;;3.90;100.00;97870.91;4978528;28;20209;-69
2024/01/27 00:25:44;;;;;;;2.73;1.63;;;;;;;3.81;100.00;97866.28;4981614;28;20584;-68
2024/01/27 00:28:11;;;;;;;1.80;1.43;;;;;;;3.76;100.00;97865.72;4977276;28;20227;-68
2024/01/27 00:30:37;;;;;;;2.83;1.40;;;;;;;3.57;100.00;97868.75;4979924;28;20236;-68
2024/01/27 00:33:05;;;;;;;3.63;1.60;;;;;;;3.62;100.00;97875.34;4978093;28;20245;-68
2024/01/27 00:35:31;;;;;;;2.70;1.53;;;;;;;3.52;100.00;97876.03;4978986;28;20336;-69
2024/01/27 00:37:58;;;;;;;3.80;1.77;;;;;;;3.67;100.00;97876.72;4979248;28;20653;-68
2024/01/27 00:40:26;;;;;;;2.43;1.50;;;;;;;3.76;100.00;97876.16;4978880;28;20203;-68
2024/01/27 00:42:54;;;;;;;4.57;1.60;;;;;;;3.57;100.00;97876.56;4978600;28;20217;-68
2024/01/27 00:45:22;;;;;;;2.47;1.70;;;;;;;3.54;100.00;97872.38;4980005;28;20207;-69
2024/01/27 00:47:49;;;;;;;4.00;1.80;;;;;;;3.62;100.00;97866.72;4976444;28;21024;-68
2024/01/27 00:50:15;;;;;;;4.00;1.70;;;;;;;3.62;100.00;97872.75;4977952;28;20234;-68
2024/01/27 00:52:42;;;;;;;2.47;1.63;;;;;;;3.52;100.00;97870.81;4977127;28;20249;-68
2024/01/27 00:55:08;;;;;;;4.43;2.20;;;;;;;3.60;100.00;97879.81;4979419;28;20207;-68
2024/01/27 00:57:38;;;;;;;5.20;1.87;;;;;;;3.71;100.00;97890.41;4978607;28;20219;-68
2024/01/27 01:00:06;;;;;;;3.03;2.10;;;;;;;3.67;100.00;97886.34;4977947;28;20650;-68
2024/01/27 01:02:32;;;;;;;2.13;1.63;;;;;;;3.47;100.00;97891.09;4978148;28;20214;-68
2024/01/27 01:04:59;;;;;;;2.93;1.90;;;;;;;3.44;100.00;97886.91;4977792;28;20232;-68
2024/01/27 01:07:26;;;;;;;4.70;2.00;;;;;;;3.34;100.00;97891.00;4978017;28;20449;-68
2024/01/27 01:09:52;;;;;;;2.43;1.50;;;;;;;3.30;100.00;97893.91;4977053;28;20495;-68
2024/01/27 01:12:19;;;;;;;2.60;1.80;;;;;;;3.31;100.00;97893.81;4982346;28;20226;-68
2024/01/27 01:14:47;;;;;;;4.70;1.70;;;;;;;3.27;100.00;97894.06;4977888;28;20678;-69
2024/01/27 01:17:13;;;;;;;3.67;1.80;;;;;;;3.25;100.00;97906.38;4977816;28;20720;-68
2024/01/27 01:19:41;;;;;;;5.00;1.57;;;;;;;3.31;100.00;97911.19;4976387;28;20226;-68
2024/01/27 01:22:08;;;;;;;2.23;1.53;;;;;;;3.11;100.00;97915.00;4977198;28;20369;-68
2024/01/27 01:24:35;;;;;;;4.03;1.90;;;;;;;3.17;100.00;97921.59;4977582;28;20213;-68
2024/01/27 01:27:01;;;;;;;4.27;2.20;;;;;;;3.09;100.00;97921.22;4976858;28;20240;-68
2024/01/27 01:29:28;;;;;;;2.80;1.80;;;;;;;3.17;100.00;97924.19;4979167;28;20238;-68
2024/01/27 01:31:56;;;;;;;3.53;2.23;;;;;;;3.17;100.00;97926.81;4977021;28;20234;-68
2024/01/27 01:34:22;;;;;;;2.80;2.00;;;;;;;3.04;100.00;97929.31;4979020;28;20211;-68
2024/01/27 01:36:49;;;;;;;4.77;1.67;;;;;;;3.04;100.00;97931.94;4976337;28;20214;-69
2024/01/27 01:39:15;;;;;;;5.07;1.90;;;;;;;3.00;100.00;97937.38;4977820;28;20234;-69
2024/01/27 01:41:42;;;;;;;2.17;1.50;;;;;;;3.10;100.00;97935.94;4976992;28;20212;-68
2024/01/27 01:44:08;;;;;;;6.30;2.40;;;;;;;3.03;100.00;97945.03;4978043;28;20222;-69
2024/01/27 01:46:35;;;;;;;3.57;1.90;;;;;;;3.08;100.00;97941.22;4975361;28;20224;-68
2024/01/27 01:49:03;;;;;;;7.00;2.23;;;;;;;3.08;100.00;97940.38;4975455;28;20233;-69
2024/01/27 01:51:30;;;;;;;4.13;1.93;;;;;;;2.98;100.00;97943.63;4979455;28;21061;-68
2024/01/27 01:54:00;;;;;;;3.70;1.97;;;;;;;3.06;100.00;97939.66;4976464;28;20910;-68
2024/01/27 01:56:26;;;;;;;2.73;1.67;;;;;;;2.98;100.00;97941.88;4978357;28;20323;-68
2024/01/27 01:58:55;;;;;;;3.83;1.93;;;;;;;3.04;100.00;97937.13;4976515;28;20239;-68
2024/01/27 02:01:22;;;;;;;3.33;1.63;;;;;;;3.07;100.00;97944.75;4978837;28;20210;-68
2024/01/27 02:03:53;;;;;;;2.53;1.70;;;;;;;3.19;100.00;97943.19;4975940;28;20675;-69
2024/01/27 02:06:21;;;;;;;3.03;1.60;;;;;;;3.00;100.00;97947.81;4977192;28;20583;-68
2024/01/27 02:08:48;;;;;;;5.10;2.00;;;;;;;2.96;100.00;97942.88;4977228;28;20225;-68
2024/01/27 02:11:15;;;;;;;3.30;1.43;;;;;;;2.97;100.00;97944.56;4976109;28;20339;-68
2024/01/27 02:13:41;;;;;;;4.07;1.80;;;;;;;2.77;100.00;97953.50;4979243;28;20210;-68
2024/01/27 02:16:08;;;;;;;2.77;1.80;;;;;;;2.85;100.00;97953.94;4976294;28;20209;-68
2024/01/27 02:18:35;;;;;;;1.73;1.27;;;;;;;2.85;100.00;97955.69;4974657;28;20231;-68
2024/01/27 02:21:01;;;;;;;3.33;1.73;;;;;;;2.82;100.00;97954.09;4975399;28;20220;-68
2024/01/27 02:23:29;;;;;;;3.07;1.90;;;;;;;2.61;100.00;97950.13;4977689;28;20575;-68
2024/01/27 02:25:57;;;;;;;6.67;2.70;;;;;;;2.88;100.00;97953.75;4975811;28;21378;-68
2024/01/27 02:28:25;;;;;;;4.30;1.80;;;;;;;2.75;100.00;97952.78;4975127;28;20864;-68
2024/01/27 02:30:52;;;;;;;6.33;1.73;;;;;;;2.59;100.00;97957.16;4975586;28;20219;-68
2024/01/27 02:33:18;;;;;;;2.20;1.73;;;;;;;2.80;100.00;97968.13;4975498;28;20206;-68
2024/01/27 02:35:45;;;;;;;4.17;2.10;;;;;;;2.73;100.00;97966.81;4977727;28;20235;-68
2024/01/27 02:38:11;;;;;;;4.50;1.67;;;;;;;2.73;100.00;97972.84;4975543;28;20229;-68
2024/01/27 02:40:38;;;;;;;4.17;1.37;;;;;;;2.74;100.00;97971.91;4978175;28;20203;-68
2024/01/27 02:43:06;;;;;;;2.20;1.40;;;;;;;2.74;100.00;97971.09;4975610;28;20581;-68
2024/01/27 02:45:32;;;;;;;2.90;1.60;;;;;;;2.63;100.00;97979.50;4977299;28;20954;-68
2024/01/27 02:47:59;;;;;;;1.47;1.33;;;;;;;2.65;100.00;97987.22;4974381;28;20232;-68
2024/01/27 02:50:26;;;;;;;4.30;1.40;;;;;;;2.57;100.00;97985.06;4975624;28;20203;-68
2024/01/27 02:52:52;;;;;;;1.60;1.43;;;;;;;2.60;100.00;97990.06;4976432;28;20737;-68
2024/01/27 02:55:19;;;;;;;2.23;1.63;;;;;;;2.60;100.00;97987.47;4976228;28;20472;-68
2024/01/27 02:57:45;;;;;;;7.57;1.63;;;;;;;2.55;100.00;97999.09;4978129;28;20212;-68
2024/01/27 03:00:14;;;;;;;4.07;1.70;;;;;;;2.62;100.00;98001.25;4975199;28;20219;-68
2024/01/27 03:02:41;;;;;;;1.77;1.30;;;;;;;2.45;100.00;98005.72;4977939;28;20344;-68
2024/01/27 03:05:08;;;;;;;4.80;1.77;;;;;;;2.54;100.00;98011.22;4975498;28;20230;-68
2024/01/27 03:07:35;;;;;;;2.60;1.40;;;;;;;2.55;100.00;98022.50;4976469;28;20231;-68
2024/01/27 03:10:01;;;;;;;3.83;1.70;;;;;;;2.52;100.00;98023.50;4975603;28;20205;-68
2024/01/27 03:12:28;;;;;;;5.20;1.60;;;;;;;2.49;100.00;98026.25;4977499;28;20267;-68
2024/01/27 03:14:55;;;;;;;3.47;1.33;;;;;;;2.26;100.00;98035.44;4977180;28;20211;-68
2024/01/27 03:17:22;;;;;;;4.63;1.50;;;;;;;2.49;100.00;98031.47;4974287;28;20590;-68
2024/01/27 03:19:49;;;;;;;4.50;1.50;;;;;;;2.35;100.00;98025.34;4973383;28;20474;-68
2024/01/27 03:22:15;;;;;;;2.60;1.43;;;;;;;2.30;100.00;98029.13;4975510;28;20199;-68
2024/01/27 03:24:42;;;;;;;3.27;1.77;;;;;;;2.36;100.00;98027.03;4977777;28;20599;-68
2024/01/27 03:27:08;;;;;;;3.07;1.43;;;;;;;2.21;100.00;98037.44;4974750;28;20207;-68
2024/01/27 03:29:35;;;;;;;2.60;1.67;;;;;;;2.34;100.00;98025.44;4977356;28;20227;-68
2024/01/27 03:32:01;;;;;;;2.07;1.40;;;;;;;2.41;100.00;98025.84;4974951;28;20231;-68
2024/01/27 03:34:29;;;;;;;1.77;1.33;;;;;;;2.44;100.00;98030.91;4976575;28;20295;-68
2024/01/27 03:36:56;;;;;;;2.70;1.50;;;;;;;2.15;100.00;98037.75;4974179;28;20670;-68
2024/01/27 03:39:23;;;;;;;3.40;1.60;;;;;;;2.31;100.00;98023.84;4975424;28;20227;-68
2024/01/27 03:41:49;;;;;;;2.03;1.50;;;;;;;2.25;100.00;98026.78;4974410;28;20858;-68
2024/01/27 03:44:16;;;;;;;3.47;1.63;;;;;;;2.25;100.00;98028.53;4976065;28;20419;-68
2024/01/27 03:46:42;;;;;;;4.43;1.83;;;;;;;2.14;100.00;98028.28;4980622;28;20218;-68
2024/01/27 03:49:09;;;;;;;2.53;1.50;;;;;;;2.23;100.00;98027.78;4977512;28;20224;-68
2024/01/27 03:51:37;;;;;;;6.10;2.10;;;;;;;2.45;100.00;98019.53;4980604;28;20228;-68
2024/01/27 03:54:03;;;;;;;1.87;1.57;;;;;;;2.35;100.00;98019.31;4978737;28;20585;-67
2024/01/27 03:56:30;;;;;;;2.77;1.50;;;;;;;2.36;100.00;98031.41;4979445;28;20702;-68
2024/01/27 03:58:56;;;;;;;3.37;1.90;;;;;;;2.40;100.00;98025.13;4976743;28;20239;-68
2024/01/27 04:01:23;;;;;;;6.27;1.60;;;;;;;2.40;100.00;98018.13;4979496;28;20593;-68
2024/01/27 04:03:49;;;;;;;4.93;2.07;;;;;;;2.38;100.00;98021.75;4979611;28;20209;-68
2024/01/27 04:06:16;;;;;;;5.27;2.50;;;;;;;2.41;100.00;98018.03;4978410;28;20232;-68
2024/01/27 04:08:44;;;;;;;3.57;1.77;;;;;;;2.62;100.00;98022.06;4980253;28;20668;-68
2024/01/27 04:11:20;;;;;;;3.37;1.70;;;;;;;2.69;100.00;98023.38;4977287;28;20207;-68
2024/01/27 04:13:46;;;;;;;2.77;1.27;;;;;;;2.31;100.00;98023.84;4980489;28;20212;-68
2024/01/27 04:16:13;;;;;;;3.67;1.70;;;;;;;2.30;100.00;98034.34;4977614;28;20213;-68
2024/01/27 04:18:39;;;;;;;4.73;1.50;;;;;;;2.25;100.00;98021.56;4976692;28;20230;-68
2024/01/27 04:21:06;;;;;;;4.33;1.43;;;;;;;2.10;100.00;98024.16;4977798;28;20214;-68
2024/01/27 04:23:33;;;;;;;4.17;1.90;;;;;;;2.10;100.00;98021.56;4979446;28;20215;-68
2024/01/27 04:26:02;;;;;;;2.83;1.30;;;;;;;2.35;100.00;98024.53;4979955;28;20587;-68
2024/01/27 04:28:30;;;;;;;3.03;1.73;;;;;;;2.26;100.00;98036.25;4977691;28;20231;-68
2024/01/27 04:30:56;;;;;;;4.33;1.30;;;;;;;2.21;100.00;98040.03;4980861;28;20298;-68
2024/01/27 04:33:23;;;;;;;5.47;1.77;;;;;;;2.07;100.00;98039.94;4978299;28;20243;-68
2024/01/27 04:35:49;;;;;;;4.53;1.53;;;;;;;2.13;100.00;98043.03;4980076;28;20213;-68
2024/01/27 04:38:16;;;;;;;2.53;1.40;;;;;;;2.11;100.00;98044.06;4976338;28;20254;-68
2024/01/27 04:40:42;;;;;;;2.10;1.67;;;;;;;2.05;100.00;98047.81;4979374;28;20211;-68
2024/01/27 04:43:10;;;;;;;5.10;1.40;;;;;;;2.29;100.00;98045.66;4977965;28;20213;-68
2024/01/27 04:45:36;;;;;;;4.33;1.80;;;;;;;2.15;100.00;98042.97;4979014;28;20208;-68
2024/01/27 04:48:03;;;;;;;2.70;1.60;;;;;;;2.12;100.00;98043.13;4977881;28;20227;-68
2024/01/27 04:50:30;;;;;;;6.57;1.70;;;;;;;1.98;100.00;98040.44;4976955;28;20704;-68
2024/01/27 04:52:56;;;;;;;4.43;1.90;;;;;;;2.00;100.00;98051.59;4980255;28;20234;-67
2024/01/27 04:55:23;;;;;;;4.90;1.70;;;;;;;2.08;100.00;98057.22;4976833;28;20209;-68
2024/01/27 04:57:49;;;;;;;3.10;1.50;;;;;;;2.13;100.00;98052.63;4978018;28;20703;-68
2024/01/27 05:00:18;;;;;;;1.97;1.47;;;;;;;2.25;100.00;98057.16;4977246;28;20210;-68
2024/01/27 05:02:45;;;;;;;2.67;1.70;;;;;;;2.20;100.00;98056.56;4978950;28;20207;-68
2024/01/27 05:05:12;;;;;;;4.10;1.37;;;;;;;2.31;100.00;98049.84;4977835;28;20244;-68
2024/01/27 05:07:39;;;;;;;13.27;1.83;;;;;;;2.35;100.00;98055.75;4976469;28;20207;-68
2024/01/27 05:10:06;;;;;;;3.33;1.67;;;;;;;2.40;100.00;98055.38;4979132;28;20207;-68
2024/01/27 05:12:33;;;;;;;3.57;1.80;;;;;;;2.35;100.00;98053.13;4978356;28;20223;-68
2024/01/27 05:14:59;;;;;;;4.37;1.70;;;;;;;2.42;100.00;98048.34;4979933;28;20208;-68
2024/01/27 05:17:27;;;;;;;4.67;1.70;;;;;;;2.49;100.00;98054.88;4976007;28;20208;-68
2024/01/27 05:19:54;;;;;;;4.30;1.70;;;;;;;2.30;100.00;98058.56;4976379;28;20209;-68
2024/01/27 05:22:20;;;;;;;2.97;1.37;;;;;;;2.40;100.00;98057.16;4976633;28;20203;-68
2024/01/27 05:24:47;;;;;;;3.27;1.90;;;;;;;2.45;100.00;98061.19;4979215;28;20508;-68
2024/01/27 05:27:13;;;;;;;4.50;1.63;;;;;;;2.40;100.00;98054.56;4976949;28;20226;-68
2024/01/27 05:29:40;;;;;;;2.77;2.00;;;;;;;2.39;100.00;98059.84;4977619;28;20234;-68
2024/01/27 05:32:07;;;;;;;3.87;1.90;;;;;;;2.44;100.00;98056.06;4978534;28;20223;-68
2024/01/27 05:34:35;;;;;;;4.60;1.80;;;;;;;2.50;100.00;98066.16;4978453;28;20211;-68
2024/01/27 05:37:01;;;;;;;7.03;1.90;;;;;;;2.33;100.00;98067.97;4977685;28;20218;-68
2024/01/27 05:39:29;;;;;;;4.00;2.43;;;;;;;2.24;100.00;98071.06;4976351;28;20496;-68
2024/01/27 05:41:55;;;;;;;6.17;2.33;;;;;;;2.29;100.00;98071.66;4978194;28;20216;-68
2024/01/27 05:44:22;;;;;;;5.77;2.23;;;;;;;2.27;100.00;98063.13;4977109;28;20666;-68
2024/01/27 05:46:48;;;;;;;3.87;2.03;;;;;;;2.30;100.00;98070.75;4976190;28;20207;-68
2024/01/27 05:49:15;;;;;;;4.17;1.90;;;;;;;2.25;100.00;98070.16;4975518;28;20227;-68
2024/01/27 05:51:43;;;;;;;8.63;2.43;;;;;;;2.43;100.00;98070.00;4977884;28;20695;-68
2024/01/27 05:54:09;;;;;;;6.07;2.10;;;;;;;2.26;100.00;98072.66;4978195;28;20242;-68
2024/01/27 05:56:36;;;;;;;4.33;2.30;;;;;;;2.28;100.00;98080.38;4977430;28;20213;-68
2024/01/27 05:59:03;;;;;;;4.03;1.80;;;;;;;2.37;100.00;98077.28;4976907;28;20236;-68
2024/01/27 06:01:29;;;;;;;6.03;2.10;;;;;;;2.31;100.00;98075.03;4976558;28;20652;-68
2024/01/27 06:03:56;;;;;;;4.07;1.90;;;;;;;2.30;100.00;98078.56;4979362;28;20211;-68
2024/01/27 06:06:22;;;;;;;5.40;2.10;;;;;;;2.24;100.00;98078.88;4976605;28;20213;-68
2024/01/27 06:08:50;;;;;;;3.80;1.70;;;;;;;2.34;100.00;98083.50;4976978;28;20228;-68
2024/01/27 06:11:24;;;;;;;6.33;2.33;;;;;;;2.43;100.00;98086.47;4976786;28;20209;-68
2024/01/27 06:13:50;;;;;;;4.10;2.20;;;;;;;2.05;100.00;98091.16;4977974;28;20238;-68
2024/01/27 06:16:18;;;;;;;3.77;1.90;;;;;;;2.26;100.00;98090.03;4978176;28;20218;-68
2024/01/27 06:18:45;;;;;;;5.57;2.37;;;;;;;2.14;100.00;98088.94;4975229;28;20265;-68
2024/01/27 06:21:11;;;;;;;6.37;2.50;;;;;;;2.10;100.00;98081.38;4975979;28;20217;-68
2024/01/27 06:23:38;;;;;;;4.03;2.23;;;;;;;2.20;100.00;98091.22;4976730;28;20309;-68
2024/01/27 06:26:07;;;;;;;3.80;2.03;;;;;;;2.29;100.00;98092.47;4978851;28;20988;-69
2024/01/27 06:28:34;;;;;;;5.33;2.90;;;;;;;2.21;100.00;98089.44;4975533;28;20227;-68
2024/01/27 06:31:00;;;;;;;5.07;2.30;;;;;;;2.18;100.00;98079.22;4978621;28;20222;-68
2024/01/27 06:33:27;;;;;;;5.43;2.53;;;;;;;2.13;100.00;98078.63;4976329;28;20231;-68
2024/01/27 06:35:54;;;;;;;4.23;2.00;;;;;;;2.11;100.00;98093.44;4978189;28;20301;-68
2024/01/27 06:38:20;;;;;;;8.73;2.97;;;;;;;2.06;100.00;98098.06;4977557;28;20239;-68
2024/01/27 06:40:47;;;;;;;7.10;2.93;;;;;;;2.03;100.00;98100.81;4976813;28;20210;-68
2024/01/27 06:43:15;;;;;;;9.53;3.90;;;;;;;2.09;100.00;98101.34;4977335;28;20230;-68
2024/01/27 06:45:40;;;;;;;7.17;3.30;;;;;;;2.08;100.00;98111.84;4976805;28;20201;-68
2024/01/27 06:48:07;;;;;;;9.37;2.93;;;;;;;2.14;100.00;98103.69;4977307;28;20601;-68
2024/01/27 06:50:34;;;;;;;6.00;2.77;;;;;;;1.93;100.00;98107.41;4974894;28;20218;-68
2024/01/27 06:53:01;;;;;;;6.23;2.77;;;;;;;1.74;100.00;98106.69;4977582;28;20772;-68
2024/01/27 06:55:28;;;;;;;9.77;2.43;;;;;;;1.65;100.00;98108.94;4976623;28;20227;-69
2024/01/27 06:57:55;;;;;;;4.10;2.03;;;;;;;1.73;100.00;98110.19;4977155;28;20231;-68
2024/01/27 07:00:24;;;;;;;8.02;3.22;;;;;;;2.01;100.00;98118.25;4975000;28;20452;-68
2024/01/27 07:02:50;;;;;;;9.17;3.40;;;;;;;2.12;100.00;98121.16;4976076;28;20203;-68
2024/01/27 07:05:17;;;;;;;12.40;4.07;;;;;;;2.15;100.00;98123.56;4978458;28;20204;-68
2024/01/27 07:07:43;;;;;;;15.37;5.20;;;;;;;1.97;100.00;98119.34;4975286;28;20611;-68
2024/01/27 07:10:10;;;;;;;16.37;6.13;;;;;;;1.90;100.00;98120.59;4978918;28;20205;-68
2024/01/27 07:12:37;;;;;;;19.37;6.53;;;;;;;1.75;100.00;98121.38;4975498;28;20731;-68
2024/01/27 07:15:04;;;;;;;18.23;6.77;;;;;;;1.68;100.00;98119.16;4977662;28;20203;-68
2024/01/27 07:17:32;;;;;;;22.47;7.03;;;;;;;1.70;100.00;98125.13;4975615;28;20203;-68
2024/01/27 07:19:58;;;;;;;13.10;4.27;;;;;;;1.49;100.00;98124.44;4973985;28;20661;-68
2024/01/27 07:22:25;;;;;;;12.23;4.53;;;;;;;1.64;100.00;98118.47;4975517;28;20210;-69
2024/01/27 07:24:52;;;;;;;9.43;3.40;;;;;;;1.70;100.00;98123.34;4975667;28;20203;-68
2024/01/27 07:27:18;;;;;;;4.33;2.00;;;;;;;1.73;100.00;98128.38;4977508;28;20224;-68
2024/01/27 07:29:45;;;;;;;4.20;2.13;;;;;;;1.54;100.00;98137.19;4974953;28;20790;-68
2024/01/27 07:32:13;;;;;;;4.97;2.30;;;;;;;1.53;100.00;98131.16;4978581;28;20216;-68
2024/01/27 07:34:41;;;;;;;4.20;2.17;;;;;;;1.76;100.00;98137.78;4975785;28;20206;-68
2024/01/27 07:37:08;;;;;;;7.77;2.77;;;;;;;1.72;100.00;98144.06;4977274;28;20209;-68
2024/01/27 07:39:35;;;;;;;8.17;3.70;;;;;;;1.68;100.00;98153.78;4974593;28;20232;-68
2024/01/27 07:42:01;;;;;;;8.40;3.03;;;;;;;1.82;100.00;98148.75;4977111;28;20670;-68
2024/01/27 07:44:28;;;;;;;7.27;3.43;;;;;;;1.79;100.00;98146.28;4975889;28;20219;-68
2024/01/27 07:46:55;;;;;;;6.50;3.40;;;;;;;1.81;100.00;98147.06;4976169;28;20619;-68
2024/01/27 07:49:21;;;;;;;9.73;3.80;;;;;;;1.95;100.00;98149.78;4974578;28;20219;-69
2024/01/27 07:51:49;;;;;;;8.27;2.87;;;;;;;2.18;100.00;98150.25;4975854;28;20210;-68
2024/01/27 07:54:15;;;;;;;9.83;2.93;;;;;;;2.16;100.00;98154.69;4976004;28;20221;-68
2024/01/27 07:56:42;;;;;;;8.97;3.43;;;;;;;2.21;100.00;98150.09;4975382;28;20553;-68
2024/01/27 07:59:13;;;;;;;12.00;3.87;;;;;;;2.27;100.00;98156.75;4975639;28;20234;-69
2024/01/27 08:01:40;;;;;;;5.93;3.37;;;;;;;2.39;100.00;98166.50;4974327;28;20204;-69
2024/01/27 08:04:06;;;;;;;6.07;2.83;;;;;;;2.40;100.00;98163.00;4976827;28;20211;-69
2024/01/27 08:06:33;;;;;;;10.00;2.90;;;;;;;2.46;100.00;98159.13;4975803;28;20213;-69
2024/01/27 08:09:00;;;;;;;5.57;2.77;;;;;;;2.73;100.00;98157.63;4975424;28;20298;-69
2024/01/27 08:11:27;;;;;;;6.17;2.70;;;;;;;2.70;100.00;98157.81;4977093;28;20223;-69
2024/01/27 08:13:53;;;;;;;6.33;3.07;;;;;;;2.83;100.00;98152.78;4975805;28;20230;-69
2024/01/27 08:16:21;;;;;;;7.03;3.50;;;;;;;2.86;100.00;98148.22;4976190;28;20231;-69
2024/01/27 08:18:48;;;;;;;6.47;3.00;;;;;;;2.97;100.00;98147.66;4973633;28;20218;-69
2024/01/27 08:21:14;;;;;;;5.67;2.60;;;;;;;3.03;100.00;98138.56;4976624;28;20201;-69
2024/01/27 08:23:40;;;;;;;12.10;4.73;;;;;;;3.15;100.00;98135.28;4974190;28;21035;-68
2024/01/27 08:26:08;;;;;;;13.17;5.40;;;;;;;3.44;100.00;98141.47;4976951;28;20209;-68
2024/01/27 08:28:35;;;;;;;12.93;5.37;;;;;;;3.18;100.00;98139.47;4974932;28;20229;-69
2024/01/27 08:31:01;;;;;;;11.87;4.80;;;;;;;3.26;100.00;98140.72;4977784;28;20207;-70
2024/01/27 08:33:28;;;;;;;10.43;4.30;;;;;;;3.37;100.00;98145.31;4977501;28;20283;-70
2024/01/27 08:35:54;;;;;;;11.17;3.87;;;;;;;3.44;100.00;98144.88;4979254;28;20210;-68
2024/01/27 08:38:21;;;;;;;6.97;4.37;;;;;;;3.52;100.00;98149.66;4978990;28;20227;-69
2024/01/27 08:40:47;;;;;;;11.60;4.60;;;;;;;3.62;100.00;98156.03;4977973;28;20198;-68
2024/01/27 08:43:16;;;;;;;12.80;4.77;;;;;;;3.88;100.00;98150.97;4981037;28;20203;-69
2024/01/27 08:45:41;;;;;;;11.00;4.63;;;;;;;3.90;100.00;98151.72;4977860;28;20661;-68
2024/01/27 08:48:09;;;;;;;9.90;4.70;;;;;;;4.09;100.00;98160.97;4977738;28;20223;-69
2024/01/27 08:50:36;;;;;;;8.13;3.90;;;;;;;4.12;100.00;98152.94;4976868;28;20641;-69
2024/01/27 08:53:02;;;;;;;11.37;3.90;;;;;;;3.99;100.00;98152.00;4979572;28;20230;-68
2024/01/27 08:55:29;;;;;;;9.03;3.43;;;;;;;4.22;100.00;98153.25;4977774;28;20214;-68
2024/01/27 08:57:56;;;;;;;8.97;3.97;;;;;;;4.30;100.00;98147.47;4978515;28;20237;-68
2024/01/27 09:00:24;;;;;;;9.00;4.40;;;;;;;4.42;100.00;98151.13;4980393;28;20213;-69
2024/01/27 09:02:50;;;;;;;8.17;3.70;;;;;;;4.51;100.00;98140.13;4979662;28;20199;-69
2024/01/27 09:05:17;;;;;;;9.60;3.00;;;;;;;4.47;100.00;98144.66;4982260;28;20585;-68
2024/01/27 09:07:43;;;;;;;9.80;3.63;;;;;;;4.64;100.00;98152.28;4978272;28;20203;-68
2024/01/27 09:10:12;;;;;;;6.77;3.07;;;;;;;4.72;100.00;98154.44;4979886;28;20210;-69
2024/01/27 09:12:38;;;;;;;7.53;2.93;;;;;;;4.88;100.00;98145.56;4976402;28;20218;-68
2024/01/27 09:15:07;;;;;;;9.13;3.77;;;;;;;5.34;100.00;98149.53;4979265;28;20208;-69
2024/01/27 09:17:34;;;;;;;8.57;3.97;;;;;;;5.37;100.00;98149.31;4976568;28;20221;-68
2024/01/27 09:20:01;;;;;;;8.70;4.20;;;;;;;5.22;100.00;98151.16;4976125;28;20778;-68
2024/01/27 09:22:28;;;;;;;5.37;2.73;;;;;;;4.80;100.00;98153.03;4979283;28;20214;-68
2024/01/27 09:24:55;;;;;;;6.07;3.17;;;;;;;5.12;100.00;98155.28;4977985;28;20206;-68
2024/01/27 09:27:21;;;;;;;10.23;3.23;;;;;;;5.13;100.00;98151.75;4980299;28;20263;-69
2024/01/27 09:29:48;;;;;;;4.60;2.83;;;;;;;5.10;100.00;98144.06;4977392;28;20223;-68
2024/01/27 09:32:14;;;;;;;13.73;3.30;;;;;;;5.14;100.00;98148.19;4980338;28;20199;-68
2024/01/27 09:34:42;;;;;;;4.47;2.23;;;;;;;5.43;100.00;98156.78;4976340;28;20223;-68
2024/01/27 09:37:09;;;;;;;6.50;2.73;;;;;;;5.18;100.00;98148.81;4978623;28;20635;-68
2024/01/27 09:39:35;;;;;;;7.03;3.00;;;;;;;5.23;100.00;98142.38;4978074;28;20230;-69
2024/01/27 09:42:07;;;;;;;14.07;4.63;;;;;;;5.56;100.00;98142.78;4977574;28;20204;-68
2024/01/27 09:44:35;;;;;;;9.53;3.40;;;;;;;5.21;100.00;98136.41;4978436;28;20212;-68
2024/01/27 09:47:03;;;;;;;7.40;2.60;;;;;;;5.38;100.00;98151.00;4977207;28;20223;-68
2024/01/27 09:49:31;;;;;;;11.67;3.73;;;;;;;5.47;100.00;98152.09;4976740;28;21095;-68
2024/01/27 09:52:00;;;;;;;5.77;3.07;;;;;;;5.79;100.00;98155.22;4976851;28;20211;-68
2024/01/27 09:54:26;;;;;;;9.13;3.63;;;;;;;5.66;100.00;98156.94;4979764;28;20227;-68
2024/01/27 09:56:55;;;;;;;8.33;3.63;;;;;;;5.91;100.00;98151.81;4977499;28;20218;-68
2024/01/27 09:59:21;;;;;;;5.23;3.00;;;;;;;5.49;100.00;98154.59;4978106;28;20260;-67
2024/01/27 10:01:51;;;;;;;7.80;2.83;;;;;;;5.98;100.00;98155.66;4976715;28;20243;-68
2024/01/27 10:04:19;;;;;;;14.97;4.03;;;;;;;5.96;100.00;98154.91;4977266;28;20196;-68
2024/01/27 10:06:47;;;;;;;6.50;3.07;;;;;;;6.09;100.00;98151.41;4975743;28;21117;-68
2024/01/27 10:09:15;;;;;;;8.73;2.80;;;;;;;6.16;100.00;98150.88;4976159;28;20285;-67
2024/01/27 10:11:46;;;;;;;6.50;2.87;;;;;;;6.53;100.00;98139.56;4980422;28;20196;-68
2024/01/27 10:14:12;;;;;;;9.10;2.93;;;;;;;6.11;100.00;98139.88;4976346;28;20228;-67
2024/01/27 10:16:43;;;;;;;5.40;2.30;;;;;;;6.53;100.00;98142.19;4979087;28;20692;-68
2024/01/27 10:19:16;;;;;;;4.20;2.50;;;;;;;6.67;100.00;98144.69;4975410;28;20242;-67
2024/01/27 10:21:42;;;;;;;7.73;3.57;;;;;;;6.44;100.00;98148.06;4977214;28;20204;-68
2024/01/27 10:24:09;;;;;;;7.00;2.97;;;;;;;6.36;100.00;98155.56;4976291;28;20200;-68
2024/01/27 10:26:37;;;;;;;6.27;2.10;;;;;;;6.32;100.00;98148.88;4980036;28;20207;-68
2024/01/27 10:29:03;;;;;;;9.17;2.60;;;;;;;6.43;100.00;98141.13;4975343;28;20231;-68
2024/01/27 10:31:31;;;;;;;4.83;2.27;;;;;;;6.63;100.00;98139.75;4978742;28;20490;-68
2024/01/27 10:33:58;;;;;;;6.07;1.83;;;;;;;6.55;100.00;98140.28;4977377;28;20234;-68
2024/01/27 10:36:26;;;;;;;5.37;2.17;;;;;;;6.48;100.00;98139.03;4977899;28;20206;-68
2024/01/27 10:38:52;;;;;;;2.83;2.00;;;;;;;6.62;100.00;98136.31;4975518;28;20316;-68
2024/01/27 10:41:22;;;;;;;6.17;2.60;;;;;;;6.62;100.00;98136.31;4976236;28;20234;-68
2024/01/27 10:43:52;;;;;;;9.63;2.87;;;;;;;6.42;100.00;98131.59;4975545;28;20214;-68
2024/01/27 10:46:20;;;;;;;8.77;2.73;;;;;;;6.61;100.00;98144.28;4976458;28;20204;-68
2024/01/27 10:48:50;;;;;;;9.57;2.67;;;;;;;6.81;100.00;98141.91;4974822;28;20226;-68
2024/01/27 10:51:23;;;;;;;4.30;2.40;;;;;;;7.06;100.00;98133.97;4976679;28;20218;-68
2024/01/27 10:53:52;;;;;;;2.60;1.63;;;;;;;6.83;100.00;98138.22;4975782;28;20235;-67
2024/01/27 10:56:20;;;;;;;7.47;2.03;;;;;;;6.85;100.00;98143.38;4974710;28;20960;-68
2024/01/27 10:58:49;;;;;;;3.93;1.90;;;;;;;7.05;100.00;98140.16;4977293;28;20241;-68
2024/01/27 11:01:22;;;;;;;3.17;2.03;;;;;;;7.17;100.00;98144.56;4977813;28;20604;-68
2024/01/27 11:03:50;;;;;;;7.50;1.80;;;;;;;7.25;100.00;98152.69;4976248;28;20218;-67
2024/01/27 11:06:21;;;;;;;5.10;2.17;;;;;;;7.59;100.00;98150.97;4977037;28;20203;-67
2024/01/27 11:08:48;;;;;;;8.87;4.07;;;;;;;7.77;100.00;98146.16;4977136;28;20299;-67
2024/01/27 11:11:15;;;;;;;9.53;2.33;;;;;;;7.68;100.00;98147.66;4978369;28;20207;-68
2024/01/27 11:13:42;;;;;;;3.20;2.20;;;;;;;7.44;100.00;98141.56;4976361;28;20226;-68
2024/01/27 11:16:18;;;;;;;9.80;2.67;;;;;;;7.84;100.00;98134.22;4977816;28;20211;-68
2024/01/27 11:18:45;;;;;;;9.93;2.27;;;;;;;7.65;100.00;98142.66;4974001;28;20227;-68
2024/01/27 11:21:15;;;;;;;3.27;1.67;;;;;;;7.36;100.00;98135.25;4976421;28;20669;-69
2024/01/27 11:23:42;;;;;;;7.30;2.17;;;;;;;7.29;100.00;98145.34;4975569;28;20229;-69
2024/01/27 11:26:12;;;;;;;4.87;2.17;;;;;;;7.39;100.00;98140.25;4976432;28;20237;-68
2024/01/27 11:28:40;;;;;;;3.93;1.70;;;;;;;7.65;99.95;98142.66;4976568;28;20238;-68
2024/01/27 11:31:08;;;;;;;6.27;1.50;;;;;;;7.66;96.28;98133.84;4976326;28;20264;-68